createdAt,value
2017-10-25T00:02:17.852Z,100.00
2017-10-25T00:04:46.213Z,100.00
2017-10-25T00:07:15.347Z,100.00
2017-10-25T00:09:43.717Z,100.00
2017-10-25T00:12:12.111Z,100.00
2017-10-25T00:14:40.505Z,100.00
2017-10-25T00:17:09.543Z,100.00
2017-10-25T00:19:37.934Z,100.00
2017-10-25T00:22:06.310Z,100.00
2017-10-25T00:30:33.558Z,100.00
2017-10-25T00:33:01.826Z,100.00
2017-10-25T00:35:30.086Z,100.00
2017-10-25T00:37:58.381Z,100.00
2017-10-25T00:40:26.672Z,100.00
2017-10-25T00:42:54.968Z,100.00
2017-10-25T00:45:23.272Z,100.00
2017-10-25T00:47:51.564Z,100.00
2017-10-25T00:50:19.849Z,100.00
2017-10-25T00:52:48.140Z,100.00
2017-10-25T00:55:16.436Z,100.00
2017-10-25T00:57:45.491Z,100.00
2017-10-25T01:00:13.803Z,100.00
2017-10-25T01:02:42.861Z,100.00
2017-10-25T01:05:11.149Z,100.00
2017-10-25T01:07:39.450Z,100.00
2017-10-25T01:10:07.746Z,100.00
2017-10-25T01:12:36.068Z,100.00
2017-10-25T01:15:04.372Z,100.00
2017-10-25T01:17:32.679Z,100.00
2017-10-25T01:20:01.732Z,100.00
2017-10-25T01:22:30.020Z,100.00
2017-10-25T01:24:58.303Z,100.00
2017-10-25T01:27:26.592Z,100.00
2017-10-25T01:29:55.640Z,100.00
2017-10-25T01:32:23.926Z,100.00
2017-10-25T01:34:52.211Z,100.00
2017-10-25T01:37:20.499Z,100.00
2017-10-25T01:39:49.464Z,100.00
2017-10-25T01:42:17.750Z,99.79
2017-10-25T01:44:46.027Z,99.48
2017-10-25T01:47:14.311Z,100.00
2017-10-25T01:49:42.604Z,99.68
2017-10-25T01:52:11.682Z,99.81
2017-10-25T01:54:39.973Z,100.00
2017-10-25T01:57:08.252Z,100.00
2017-10-25T01:59:37.302Z,100.00
2017-10-25T02:02:05.586Z,99.50
2017-10-25T02:04:33.863Z,99.51
2017-10-25T02:07:02.154Z,99.90
2017-10-25T02:09:30.465Z,99.88
2017-10-25T02:11:59.516Z,99.30
2017-10-25T02:14:28.546Z,98.49
2017-10-25T02:16:57.597Z,97.89
2017-10-25T02:19:25.884Z,97.10
2017-10-25T02:21:54.168Z,96.79
2017-10-25T02:24:22.448Z,96.72
2017-10-25T02:26:50.732Z,96.16
2017-10-25T02:29:19.017Z,95.57
2017-10-25T02:31:47.319Z,96.09
2017-10-25T02:34:15.614Z,97.57
2017-10-25T02:36:45.376Z,97.26
2017-10-25T02:39:13.673Z,97.66
2017-10-25T02:41:41.984Z,98.90
2017-10-25T02:44:10.274Z,99.09
2017-10-25T02:46:38.558Z,99.31
2017-10-25T02:49:06.870Z,99.87
2017-10-25T02:51:35.182Z,100.00
2017-10-25T02:54:03.476Z,100.00
2017-10-25T02:56:31.760Z,100.00
2017-10-25T02:59:00.057Z,100.00
2017-10-25T03:01:28.344Z,100.00
2017-10-25T03:03:56.657Z,100.00
2017-10-25T03:06:24.938Z,100.00
2017-10-25T03:08:53.228Z,100.00
2017-10-25T03:11:21.519Z,100.00
2017-10-25T03:13:49.809Z,100.00
2017-10-25T03:16:18.117Z,100.00
2017-10-25T03:18:46.426Z,100.00
2017-10-25T03:21:14.718Z,100.00
2017-10-25T03:23:42.996Z,100.00
2017-10-25T03:26:11.289Z,100.00
2017-10-25T03:28:39.589Z,100.00
2017-10-25T03:31:08.674Z,100.00
2017-10-25T03:33:36.984Z,100.00
2017-10-25T03:36:05.281Z,100.00
2017-10-25T03:38:33.562Z,100.00
2017-10-25T03:41:01.849Z,100.00
2017-10-25T03:43:30.149Z,100.00
2017-10-25T03:45:58.468Z,100.00
2017-10-25T03:48:26.746Z,100.00
2017-10-25T03:50:55.041Z,100.00
2017-10-25T03:53:23.315Z,100.00
2017-10-25T03:55:51.599Z,100.00
2017-10-25T03:58:19.892Z,100.00
2017-10-25T04:00:48.244Z,100.00
2017-10-25T04:03:16.532Z,100.00
2017-10-25T04:05:44.824Z,100.00
2017-10-25T04:08:13.110Z,99.53
2017-10-25T04:10:41.395Z,98.82
2017-10-25T04:13:09.677Z,98.00
2017-10-25T04:15:37.952Z,98.85
2017-10-25T04:18:06.244Z,99.45
2017-10-25T04:20:35.296Z,99.56
2017-10-25T04:23:03.579Z,99.21
2017-10-25T04:25:31.866Z,99.71
2017-10-25T04:28:00.157Z,99.97
2017-10-25T04:30:28.448Z,99.86
2017-10-25T04:32:57.498Z,99.93
2017-10-25T04:35:25.792Z,99.79
2017-10-25T04:37:54.092Z,100.00
2017-10-25T04:40:22.385Z,100.00
2017-10-25T04:42:50.670Z,100.00
2017-10-25T04:45:18.956Z,100.00
2017-10-25T04:47:47.252Z,100.00
2017-10-25T04:50:15.557Z,100.00
2017-10-25T04:52:43.857Z,100.00
2017-10-25T04:55:12.916Z,100.00
2017-10-25T04:57:41.276Z,100.00
2017-10-25T05:00:09.574Z,100.00
2017-10-25T05:02:37.872Z,100.00
2017-10-25T05:05:06.170Z,100.00
2017-10-25T05:07:34.454Z,100.00
2017-10-25T05:10:02.749Z,99.59
2017-10-25T05:12:31.036Z,99.47
2017-10-25T05:14:59.332Z,99.39
2017-10-25T05:17:27.636Z,99.09
2017-10-25T05:19:56.709Z,99.83
2017-10-25T05:22:24.996Z,99.09
2017-10-25T05:24:53.310Z,99.91
2017-10-25T05:27:21.594Z,99.64
2017-10-25T05:29:49.875Z,99.99
2017-10-25T05:32:18.152Z,99.34
2017-10-25T05:34:46.432Z,99.84
2017-10-25T05:37:14.714Z,99.99
2017-10-25T05:39:43.896Z,100.00
2017-10-25T05:42:12.175Z,100.00
2017-10-25T05:44:40.461Z,100.00
2017-10-25T05:47:08.756Z,99.99
2017-10-25T05:49:37.041Z,100.00
2017-10-25T05:52:05.334Z,100.00
2017-10-25T05:54:33.621Z,100.00
2017-10-25T05:57:02.684Z,100.00
2017-10-25T05:59:31.000Z,100.00
2017-10-25T06:02:00.061Z,100.00
2017-10-25T06:04:28.362Z,100.00
2017-10-25T06:06:57.424Z,100.00
2017-10-25T06:09:25.735Z,100.00
2017-10-25T06:11:54.801Z,100.00
2017-10-25T06:14:23.089Z,100.00
2017-10-25T06:16:51.369Z,99.12
2017-10-25T06:19:19.671Z,98.76
2017-10-25T06:21:47.959Z,99.44
2017-10-25T06:24:16.243Z,99.41
2017-10-25T06:26:44.636Z,99.13
2017-10-25T06:29:12.929Z,100.00
2017-10-25T06:31:41.215Z,100.00
2017-10-25T06:34:09.499Z,100.00
2017-10-25T06:36:37.796Z,100.00
2017-10-25T06:39:08.180Z,100.00
2017-10-25T06:41:36.491Z,100.00
2017-10-25T06:44:05.548Z,100.00
2017-10-25T06:46:33.841Z,100.00
2017-10-25T06:49:02.123Z,100.00
2017-10-25T06:51:30.416Z,100.00
2017-10-25T06:53:58.697Z,100.00
2017-10-25T06:56:27.752Z,100.00
2017-10-25T06:58:56.044Z,100.00
2017-10-25T07:01:24.345Z,100.00
2017-10-25T07:03:52.637Z,100.00
2017-10-25T07:06:20.939Z,100.00
2017-10-25T07:08:49.249Z,100.00
2017-10-25T07:11:17.537Z,100.00
2017-10-25T07:13:45.822Z,100.00
2017-10-25T07:16:14.116Z,100.00
2017-10-25T07:18:42.446Z,100.00
2017-10-25T07:21:10.733Z,100.00
2017-10-25T07:23:39.024Z,100.00
2017-10-25T07:26:07.308Z,100.00
2017-10-25T07:28:36.378Z,100.00
2017-10-25T07:31:04.680Z,99.45
2017-10-25T07:33:33.740Z,100.00
2017-10-25T07:36:02.044Z,100.00
2017-10-25T07:38:31.096Z,99.80
2017-10-25T07:40:59.378Z,99.76
2017-10-25T07:43:27.671Z,99.88
2017-10-25T07:45:55.974Z,99.43
2017-10-25T07:48:24.256Z,99.85
2017-10-25T07:50:53.344Z,100.00
2017-10-25T07:53:21.623Z,99.78
2017-10-25T07:55:50.664Z,99.71
2017-10-25T07:58:18.949Z,98.82
2017-10-25T08:00:47.235Z,99.47
2017-10-25T08:03:15.522Z,98.71
2017-10-25T08:05:43.816Z,99.78
2017-10-25T08:08:12.876Z,98.08
2017-10-25T08:10:41.167Z,97.30
2017-10-25T08:13:09.446Z,97.84
2017-10-25T08:15:37.736Z,98.08
2017-10-25T08:18:06.032Z,98.26
2017-10-25T08:20:35.085Z,97.81
2017-10-25T08:23:03.386Z,98.42
2017-10-25T08:25:32.438Z,97.40
2017-10-25T08:28:01.209Z,97.58
2017-10-25T08:30:29.487Z,97.51
2017-10-25T08:32:57.764Z,97.64
2017-10-25T08:35:26.040Z,97.45
2017-10-25T08:37:54.317Z,96.27
2017-10-25T08:40:22.617Z,97.46
2017-10-25T08:42:50.909Z,97.11
2017-10-25T08:45:19.201Z,96.00
2017-10-25T08:47:47.497Z,96.13
2017-10-25T08:50:16.541Z,96.65
2017-10-25T08:52:44.844Z,96.00
2017-10-25T08:55:13.125Z,95.17
2017-10-25T08:57:41.409Z,95.09
2017-10-25T09:00:09.772Z,93.49
2017-10-25T09:02:38.060Z,93.63
2017-10-25T09:05:07.114Z,92.99
2017-10-25T09:07:35.389Z,93.40
2017-10-25T09:10:03.673Z,92.26
2017-10-25T09:12:31.951Z,90.35
2017-10-25T09:15:00.255Z,89.56
2017-10-25T09:17:29.311Z,88.83
2017-10-25T09:19:57.596Z,88.16
2017-10-25T09:22:25.875Z,87.35
2017-10-25T09:24:54.160Z,87.42
2017-10-25T09:27:22.458Z,86.08
2017-10-25T09:29:51.514Z,85.37
2017-10-25T09:32:19.800Z,86.07
2017-10-25T09:34:48.093Z,86.58
2017-10-25T09:37:16.376Z,83.95
2017-10-25T09:39:44.656Z,84.40
2017-10-25T09:42:13.696Z,83.10
2017-10-25T09:44:41.988Z,83.68
2017-10-25T09:47:10.265Z,83.59
2017-10-25T09:49:38.542Z,82.49
2017-10-25T09:52:06.821Z,83.36
2017-10-25T09:54:35.103Z,82.06
2017-10-25T09:57:03.413Z,81.40
2017-10-25T09:59:31.684Z,81.28
2017-10-25T10:02:00.752Z,82.22
2017-10-25T10:04:29.033Z,81.19
2017-10-25T10:06:57.312Z,81.25
2017-10-25T10:09:25.605Z,81.67
2017-10-25T10:11:53.893Z,82.04
2017-10-25T10:14:22.944Z,82.19
2017-10-25T10:16:51.229Z,80.31
2017-10-25T10:19:19.538Z,80.35
2017-10-25T10:21:47.820Z,79.11
2017-10-25T10:24:16.111Z,79.61
2017-10-25T10:26:44.389Z,79.65
2017-10-25T10:29:13.188Z,79.22
2017-10-25T10:31:41.484Z,78.94
2017-10-25T10:34:09.770Z,78.82
2017-10-25T10:36:38.077Z,78.36
2017-10-25T10:39:06.359Z,78.20
2017-10-25T10:41:35.404Z,77.25
2017-10-25T10:44:03.697Z,76.59
2017-10-25T10:46:31.976Z,77.37
2017-10-25T10:49:00.281Z,78.21
2017-10-25T10:51:29.336Z,74.26
2017-10-25T10:54:00.437Z,75.33
2017-10-25T10:56:28.719Z,75.35
2017-10-25T10:58:57.068Z,78.32
2017-10-25T11:01:26.164Z,76.56
2017-10-25T11:03:54.456Z,77.22
2017-10-25T11:06:23.503Z,77.61
2017-10-25T11:08:51.794Z,77.64
2017-10-25T11:11:20.096Z,77.21
2017-10-25T11:13:49.163Z,77.02
2017-10-25T11:16:17.469Z,76.24
2017-10-25T11:18:46.529Z,76.65
2017-10-25T11:21:15.723Z,75.39
2017-10-25T11:23:44.009Z,73.83
2017-10-25T11:26:12.308Z,73.48
2017-10-25T11:28:42.036Z,72.47
2017-10-25T11:31:10.319Z,72.26
2017-10-25T11:33:38.604Z,72.46
2017-10-25T11:36:06.892Z,72.51
2017-10-25T11:38:35.173Z,71.29
2017-10-25T11:41:03.473Z,72.08
2017-10-25T11:43:31.750Z,72.00
2017-10-25T11:46:00.038Z,70.97
2017-10-25T11:48:28.325Z,70.65
2017-10-25T11:50:57.366Z,73.00
2017-10-25T11:53:25.643Z,73.02
2017-10-25T11:55:53.934Z,70.82
2017-10-25T11:58:22.231Z,71.73
2017-10-25T12:00:50.522Z,73.11
2017-10-25T12:03:19.917Z,72.64
2017-10-25T12:05:48.208Z,72.05
2017-10-25T12:08:17.286Z,72.62
2017-10-25T12:10:45.584Z,72.69
2017-10-25T12:13:14.642Z,72.44
2017-10-25T12:15:42.940Z,71.64
2017-10-25T12:18:11.237Z,72.37
2017-10-25T12:20:40.256Z,70.32
2017-10-25T12:23:09.313Z,69.82
2017-10-25T12:25:38.386Z,72.15
2017-10-25T12:28:06.673Z,71.49
2017-10-25T12:30:34.963Z,71.48
2017-10-25T12:33:04.017Z,70.57
2017-10-25T12:35:32.292Z,69.54
2017-10-25T12:38:00.584Z,67.47
2017-10-25T12:40:28.837Z,65.92
2017-10-25T12:42:57.133Z,63.97
2017-10-25T12:45:25.421Z,64.12
2017-10-25T12:47:54.164Z,65.59
2017-10-25T12:50:22.445Z,66.96
2017-10-25T12:52:50.736Z,66.39
2017-10-25T12:55:19.032Z,66.32
2017-10-25T12:57:47.325Z,62.90
2017-10-25T13:00:15.619Z,63.11
2017-10-25T13:02:44.692Z,62.79
2017-10-25T13:05:12.998Z,62.06
2017-10-25T13:07:42.054Z,61.13
2017-10-25T13:10:20.761Z,60.31
2017-10-25T13:16:15.037Z,61.98
2017-10-25T13:18:46.121Z,60.00
2017-10-25T13:21:14.408Z,59.51
2017-10-25T13:23:43.176Z,60.33
2017-10-25T13:26:11.861Z,58.60
2017-10-25T13:28:40.141Z,58.33
2017-10-25T13:31:08.436Z,57.82
2017-10-25T13:33:36.713Z,56.49
2017-10-25T13:36:05.782Z,55.91
2017-10-25T13:38:34.434Z,56.59
2017-10-25T13:41:02.717Z,56.10
2017-10-25T13:43:30.999Z,54.58
2017-10-25T13:45:59.272Z,55.26
2017-10-25T13:48:27.574Z,56.55
2017-10-25T13:50:55.852Z,57.92
2017-10-25T13:53:24.137Z,59.99
2017-10-25T13:55:52.420Z,61.01
2017-10-25T13:58:20.687Z,62.03
2017-10-25T14:00:48.964Z,62.77
2017-10-25T14:03:17.256Z,63.44
2017-10-25T14:05:45.547Z,62.37
2017-10-25T14:08:13.836Z,64.88
2017-10-25T14:10:42.122Z,62.54
2017-10-25T14:13:11.492Z,63.64
2017-10-25T14:15:39.774Z,62.92
2017-10-25T14:18:08.843Z,62.79
2017-10-25T14:20:37.124Z,63.05
2017-10-25T14:23:05.408Z,63.38
2017-10-25T14:25:33.691Z,64.98
2017-10-25T14:28:19.621Z,67.49
2017-10-25T14:30:47.906Z,68.24
2017-10-25T14:33:16.182Z,67.05
2017-10-25T14:35:44.484Z,66.99
2017-10-25T14:38:12.768Z,67.09
2017-10-25T14:40:41.068Z,68.74
2017-10-25T14:43:10.119Z,68.73
2017-10-25T14:45:38.431Z,69.65
2017-10-25T14:48:06.723Z,69.50
2017-10-25T14:50:35.009Z,70.99
2017-10-25T14:53:03.303Z,72.24
2017-10-25T14:55:31.580Z,71.85
2017-10-25T14:57:59.945Z,71.00
2017-10-25T15:00:28.233Z,69.16
2017-10-25T15:02:56.519Z,69.06
2017-10-25T15:05:24.846Z,70.33
2017-10-25T15:07:53.893Z,72.24
2017-10-25T15:10:22.171Z,72.77
2017-10-25T15:12:50.472Z,73.40
2017-10-25T15:15:18.773Z,73.03
2017-10-25T15:17:48.590Z,72.51
2017-10-25T15:20:17.642Z,73.69
2017-10-25T15:22:46.364Z,72.98
2017-10-25T15:25:14.713Z,73.59
2017-10-25T15:27:42.990Z,73.50
2017-10-25T15:30:11.275Z,74.38
2017-10-25T15:32:39.592Z,74.10
2017-10-25T15:35:08.012Z,75.10
2017-10-25T15:37:36.288Z,75.50
2017-10-25T15:40:04.600Z,75.56
2017-10-25T15:42:32.894Z,75.87
2017-10-25T15:45:01.195Z,78.27
2017-10-25T15:47:29.691Z,78.71
2017-10-25T15:49:57.970Z,78.70
2017-10-25T15:52:26.326Z,79.28
2017-10-25T15:54:56.509Z,79.66
2017-10-25T15:57:30.589Z,80.85
2017-10-25T15:59:59.937Z,82.21
2017-10-25T16:02:29.063Z,82.67
2017-10-25T16:04:57.344Z,82.58
2017-10-25T16:07:25.675Z,81.58
2017-10-25T16:09:53.987Z,82.05
2017-10-25T16:12:22.285Z,82.54
2017-10-25T16:14:50.677Z,83.68
2017-10-25T16:17:19.057Z,82.92
2017-10-25T16:19:48.354Z,82.45
2017-10-25T16:22:24.129Z,82.52
2017-10-25T16:24:52.416Z,82.55
2017-10-25T16:27:20.710Z,82.79
2017-10-25T16:29:49.761Z,84.58
2017-10-25T16:32:19.324Z,85.73
2017-10-25T16:34:47.619Z,85.83
2017-10-25T16:37:15.925Z,86.03
2017-10-25T16:39:44.204Z,88.35
2017-10-25T16:42:12.728Z,87.30
2017-10-25T16:44:41.201Z,86.77
2017-10-25T16:47:10.268Z,87.01
2017-10-25T16:49:38.552Z,86.65
2017-10-25T16:52:10.442Z,87.32
2017-10-25T16:54:38.764Z,86.67
2017-10-25T16:57:07.113Z,86.50
2017-10-25T16:59:35.408Z,85.73
2017-10-25T17:02:11.816Z,87.73
2017-10-25T17:04:40.187Z,87.26
2017-10-25T17:07:30.094Z,86.73
2017-10-25T17:09:59.175Z,87.35
2017-10-25T17:12:27.472Z,88.03
2017-10-25T17:14:56.525Z,88.28
2017-10-25T17:17:24.834Z,88.99
2017-10-25T17:19:53.930Z,89.09
2017-10-25T17:22:22.421Z,89.20
2017-10-25T17:24:51.434Z,89.01
2017-10-25T17:27:24.165Z,89.52
2017-10-25T17:29:54.749Z,90.50
2017-10-25T17:32:23.660Z,90.70
2017-10-25T17:34:52.323Z,91.35
2017-10-25T17:37:21.454Z,91.80
2017-10-25T17:39:50.141Z,93.28
2017-10-25T17:42:18.980Z,92.63
2017-10-25T17:44:49.126Z,92.92
2017-10-25T17:47:22.376Z,92.97
2017-10-25T17:49:51.767Z,94.12
2017-10-25T17:52:20.942Z,93.54
2017-10-25T17:54:50.695Z,93.09
2017-10-25T17:57:19.074Z,92.96
2017-10-25T17:59:47.523Z,93.49
2017-10-25T18:02:17.020Z,94.80
2017-10-25T18:04:45.360Z,94.49
2017-10-25T18:07:13.892Z,95.10
2017-10-25T18:09:42.694Z,94.75
2017-10-25T18:12:11.949Z,94.41
2017-10-25T18:14:40.565Z,95.02
2017-10-25T18:17:09.047Z,94.50
2017-10-25T18:19:37.836Z,94.33
2017-10-25T18:22:06.403Z,95.10
2017-10-25T18:24:36.516Z,94.52
2017-10-25T18:27:07.262Z,94.41
2017-10-25T18:29:36.836Z,94.79
2017-10-25T18:32:06.772Z,95.00
2017-10-25T18:34:36.857Z,95.45
2017-10-25T18:37:08.763Z,94.54
2017-10-25T18:39:39.449Z,94.22
2017-10-25T18:42:11.503Z,93.25
2017-10-25T18:44:43.275Z,93.46
2017-10-25T18:47:14.528Z,93.38
2017-10-25T18:49:45.271Z,92.73
2017-10-25T18:52:30.179Z,93.03
2017-10-25T18:55:03.934Z,92.59
2017-10-25T18:57:34.448Z,92.87
2017-10-25T19:00:05.042Z,93.40
2017-10-25T19:02:34.988Z,93.56
2017-10-25T19:05:07.780Z,93.73
2017-10-25T19:07:37.783Z,93.94
2017-10-25T19:10:10.111Z,94.00
2017-10-25T19:12:39.949Z,93.49
2017-10-25T19:15:09.830Z,94.46
2017-10-25T19:17:40.690Z,94.42
2017-10-25T19:20:10.892Z,93.56
2017-10-25T19:22:45.102Z,92.68
2017-10-25T19:25:14.988Z,92.13
2017-10-25T19:27:44.768Z,91.41
2017-10-25T19:30:14.611Z,90.38
2017-10-25T19:32:44.427Z,91.44
2017-10-25T19:35:14.270Z,90.63
2017-10-25T19:37:43.997Z,90.06
2017-10-25T19:40:14.047Z,90.41
2017-10-25T19:42:43.880Z,89.61
2017-10-25T19:45:13.831Z,89.79
2017-10-25T19:47:43.624Z,89.36
2017-10-25T19:50:13.344Z,88.67
2017-10-25T19:52:43.193Z,88.54
2017-10-25T19:55:22.239Z,88.72
2017-10-25T19:57:52.868Z,89.04
2017-10-25T20:00:22.636Z,88.99
2017-10-25T20:02:52.415Z,89.34
2017-10-25T20:05:22.319Z,88.73
2017-10-25T20:07:52.073Z,88.56
2017-10-25T20:10:21.814Z,88.57
2017-10-25T20:12:52.392Z,88.73
2017-10-25T20:15:22.199Z,88.49
2017-10-25T20:17:53.223Z,89.27
2017-10-25T20:20:23.049Z,89.67
2017-10-25T20:22:52.794Z,90.49
2017-10-25T20:25:22.907Z,92.13
2017-10-25T20:27:52.452Z,91.27
2017-10-25T20:30:22.372Z,91.10
2017-10-25T20:32:51.836Z,91.47
2017-10-25T20:35:20.731Z,92.29
2017-10-25T20:37:49.558Z,92.41
2017-10-25T20:40:18.219Z,92.69
2017-10-25T20:42:49.443Z,91.42
2017-10-25T20:45:17.792Z,92.92
2017-10-25T20:47:46.151Z,93.46
2017-10-25T20:50:14.451Z,93.90
2017-10-25T20:52:42.743Z,95.32
2017-10-25T20:55:11.101Z,94.54
2017-10-25T20:57:39.383Z,92.83
2017-10-25T21:00:07.712Z,91.16
2017-10-25T21:02:35.985Z,90.20
2017-10-25T21:05:05.073Z,90.00
2017-10-25T21:07:34.120Z,88.92
2017-10-25T21:10:02.477Z,87.94
2017-10-25T21:12:30.751Z,87.66
2017-10-25T21:14:59.046Z,87.49
2017-10-25T21:17:27.324Z,87.96
2017-10-25T21:19:55.613Z,87.55
2017-10-25T21:22:23.891Z,87.44
2017-10-25T21:24:52.194Z,87.44
2017-10-25T21:27:21.239Z,87.85
2017-10-25T21:29:50.119Z,88.01
2017-10-25T21:32:18.406Z,88.59
2017-10-25T21:34:46.693Z,90.27
2017-10-25T21:37:14.972Z,91.74
2017-10-25T21:39:43.253Z,97.30
2017-10-25T21:42:11.533Z,95.90
2017-10-25T21:44:39.824Z,94.35
2017-10-25T21:47:08.129Z,93.22
2017-10-25T21:49:36.432Z,92.13
2017-10-25T21:52:04.727Z,91.65
2017-10-25T21:54:33.012Z,92.46
2017-10-25T21:57:01.293Z,93.24
2017-10-25T21:59:29.576Z,92.45
2017-10-25T22:01:57.868Z,91.11
2017-10-25T22:04:26.952Z,90.49
2017-10-25T22:06:55.233Z,90.16
2017-10-25T22:09:24.160Z,89.91
2017-10-25T22:11:52.453Z,89.98
2017-10-25T22:14:20.744Z,90.98
2017-10-25T22:16:49.022Z,91.72
2017-10-25T22:19:17.305Z,92.29
2017-10-25T22:21:45.593Z,91.99
2017-10-25T22:24:29.295Z,91.16
2017-10-25T22:26:57.584Z,91.49
2017-10-25T22:29:25.875Z,91.07
2017-10-25T22:31:54.180Z,90.33
2017-10-25T22:34:22.452Z,90.34
2017-10-25T22:36:50.743Z,91.19
2017-10-25T22:39:19.777Z,91.71
2017-10-25T22:41:48.052Z,91.47
2017-10-25T22:44:16.320Z,91.25
2017-10-25T22:46:45.689Z,90.82
2017-10-25T22:49:13.984Z,90.54
2017-10-25T22:51:42.278Z,90.38
2017-10-25T22:54:11.331Z,90.49
2017-10-25T22:56:40.984Z,89.81
2017-10-25T22:59:09.264Z,90.00
2017-10-25T23:01:37.545Z,93.57
2017-10-25T23:04:05.833Z,93.10
2017-10-25T23:06:34.131Z,95.31
2017-10-25T23:09:02.411Z,94.16
2017-10-25T23:11:31.152Z,93.07
2017-10-25T23:13:59.442Z,92.53
2017-10-25T23:16:29.296Z,92.42
2017-10-25T23:18:57.579Z,92.76
2017-10-25T23:21:26.645Z,94.77
2017-10-25T23:23:54.945Z,95.66
2017-10-25T23:26:23.992Z,93.90
2017-10-25T23:28:52.276Z,93.83
2017-10-25T23:31:20.565Z,92.96
2017-10-25T23:33:48.869Z,92.69
2017-10-25T23:36:17.160Z,91.73
2017-10-25T23:38:46.218Z,91.00
2017-10-25T23:41:15.174Z,90.94
2017-10-25T23:43:43.452Z,90.67
2017-10-25T23:46:11.744Z,90.06
2017-10-25T23:48:40.028Z,91.12
2017-10-25T23:51:08.335Z,90.58
2017-10-25T23:53:36.627Z,90.07
2017-10-25T23:56:04.910Z,90.08
2017-10-25T23:58:33.188Z,89.26
